createdAt,value
2019-01-25T00:02:30.178Z,-4.30
2019-01-25T00:05:00.286Z,-4.40
2019-01-25T00:07:30.536Z,-4.30
2019-01-25T00:10:00.918Z,-4.40
2019-01-25T00:12:31.159Z,-4.40
2019-01-25T00:15:01.326Z,-4.40
2019-01-25T00:17:31.497Z,-4.40
2019-01-25T00:20:02.153Z,-4.40
2019-01-25T00:22:32.401Z,-4.40
2019-01-25T00:25:02.650Z,-4.40
2019-01-25T00:27:33.067Z,-4.40
2019-01-25T00:30:03.275Z,-4.40
2019-01-25T00:32:33.422Z,-4.40
2019-01-25T00:35:04.003Z,-4.40
2019-01-25T00:37:34.196Z,-4.40
2019-01-25T00:40:06.307Z,-4.40
2019-01-25T00:42:36.704Z,-4.40
2019-01-25T00:45:07.788Z,-4.40
2019-01-25T00:47:38.145Z,-4.40
2019-01-25T00:50:12.434Z,-4.40
2019-01-25T00:52:42.585Z,-4.40
2019-01-25T00:55:13.147Z,-4.40
2019-01-25T00:57:43.565Z,-4.40
2019-01-25T01:00:22.000Z,-4.40
2019-01-25T01:02:52.278Z,-4.40
2019-01-25T01:05:22.668Z,-4.40
2019-01-25T01:07:52.997Z,-4.40
2019-01-25T01:10:23.288Z,-4.40
2019-01-25T01:12:53.913Z,-4.40
2019-01-25T01:15:24.088Z,-4.50
2019-01-25T01:17:54.272Z,-4.50
2019-01-25T01:20:24.431Z,-4.50
2019-01-25T01:22:54.808Z,-4.50
2019-01-25T01:25:25.198Z,-4.50
2019-01-25T01:27:55.395Z,-4.40
2019-01-25T01:30:25.834Z,-4.50
2019-01-25T01:32:56.088Z,-4.40
2019-01-25T01:35:26.253Z,-4.40
2019-01-25T01:37:56.337Z,-4.40
2019-01-25T01:40:26.851Z,-4.40
2019-01-25T01:42:57.126Z,-4.50
2019-01-25T01:45:27.133Z,-4.50
2019-01-25T01:47:57.279Z,-4.50
2019-01-25T01:50:27.429Z,-4.50
2019-01-25T01:52:57.514Z,-4.50
2019-01-25T01:55:27.687Z,-4.50
2019-01-25T01:57:58.114Z,-4.50
2019-01-25T02:00:28.566Z,-4.50
2019-01-25T02:02:59.203Z,-4.50
2019-01-25T02:05:30.358Z,-4.50
2019-01-25T02:08:00.578Z,-4.50
2019-01-25T02:10:30.737Z,-4.50
2019-01-25T02:13:01.087Z,-4.50
2019-01-25T02:15:31.553Z,-4.50
2019-01-25T02:18:02.089Z,-4.50
2019-01-25T02:20:32.302Z,-4.50
2019-01-25T02:23:02.540Z,-4.50
2019-01-25T02:25:32.819Z,-4.50
2019-01-25T02:28:03.219Z,-4.50
2019-01-25T02:30:33.665Z,-4.50
2019-01-25T02:33:04.020Z,-4.50
2019-01-25T02:35:34.405Z,-4.60
2019-01-25T02:38:04.508Z,-4.60
2019-01-25T02:40:39.114Z,-4.60
2019-01-25T02:43:06.479Z,-4.60
2019-01-25T02:45:39.595Z,-4.60
2019-01-25T02:48:09.880Z,-4.60
2019-01-25T02:50:40.242Z,-4.60
2019-01-25T02:53:10.390Z,-4.60
2019-01-25T02:55:40.592Z,-4.60
2019-01-25T02:58:12.686Z,-4.60
2019-01-25T03:00:42.738Z,-4.60
2019-01-25T03:03:12.860Z,-4.60
2019-01-25T03:05:43.253Z,-4.60
2019-01-25T03:08:16.385Z,-4.60
2019-01-25T03:10:47.380Z,-4.60
2019-01-25T03:13:20.244Z,-4.50
2019-01-25T03:15:50.898Z,-4.50
2019-01-25T03:18:25.066Z,-4.60
2019-01-25T03:20:55.843Z,-4.60
2019-01-25T03:23:27.030Z,-4.60
2019-01-25T03:25:57.511Z,-4.60
2019-01-25T03:28:27.753Z,-4.60
2019-01-25T03:30:57.986Z,-4.60
2019-01-25T03:33:28.840Z,-4.60
2019-01-25T03:35:58.945Z,-4.60
2019-01-25T03:38:29.170Z,-4.60
2019-01-25T03:40:59.628Z,-4.60
2019-01-25T03:43:30.569Z,-4.60
2019-01-25T03:46:00.659Z,-4.60
2019-01-25T03:48:30.806Z,-4.60
2019-01-25T03:51:00.992Z,-4.60
2019-01-25T03:53:31.176Z,-4.60
2019-01-25T03:56:01.624Z,-4.70
2019-01-25T03:58:32.027Z,-4.70
2019-01-25T04:01:02.470Z,-4.70
2019-01-25T04:03:32.750Z,-4.70
2019-01-25T04:06:02.822Z,-4.70
2019-01-25T04:08:32.915Z,-4.70
2019-01-25T04:11:03.979Z,-4.70
2019-01-25T04:13:34.542Z,-4.70
2019-01-25T04:16:04.779Z,-4.70
2019-01-25T04:18:34.896Z,-4.70
2019-01-25T04:21:04.961Z,-4.70
2019-01-25T04:23:35.170Z,-4.70
2019-01-25T04:26:05.328Z,-4.70
2019-01-25T04:28:35.772Z,-4.70
2019-01-25T04:31:05.881Z,-4.70
2019-01-25T04:33:36.110Z,-4.70
2019-01-25T04:36:06.191Z,-4.70
2019-01-25T04:38:36.266Z,-4.70
2019-01-25T04:41:11.603Z,-4.70
2019-01-25T04:43:38.930Z,-4.70
2019-01-25T04:46:09.020Z,-4.70
2019-01-25T04:48:39.121Z,-4.70
2019-01-25T04:51:09.427Z,-4.60
2019-01-25T04:53:39.978Z,-4.60
2019-01-25T04:56:10.140Z,-4.60
2019-01-25T04:58:40.287Z,-4.60
2019-01-25T05:01:11.209Z,-4.60
2019-01-25T05:03:41.401Z,-4.50
2019-01-25T05:06:14.884Z,-4.50
2019-01-25T05:08:45.091Z,-4.50
2019-01-25T05:11:20.039Z,-4.50
2019-01-25T05:13:50.568Z,-4.50
2019-01-25T05:16:20.924Z,-4.50
2019-01-25T05:18:51.220Z,-4.50
2019-01-25T05:21:25.184Z,-4.50
2019-01-25T05:23:55.352Z,-4.50
2019-01-25T05:26:25.397Z,-4.50
2019-01-25T05:28:55.513Z,-4.50
2019-01-25T05:31:28.982Z,-4.50
2019-01-25T05:33:59.323Z,-4.50
2019-01-25T05:36:29.589Z,-4.50
2019-01-25T05:38:59.982Z,-4.50
2019-01-25T05:41:30.264Z,-4.50
2019-01-25T05:44:00.357Z,-4.50
2019-01-25T05:46:30.436Z,-4.50
2019-01-25T05:49:00.555Z,-4.50
2019-01-25T05:51:33.735Z,-4.50
2019-01-25T05:54:02.552Z,-4.50
2019-01-25T05:56:32.610Z,-4.50
2019-01-25T05:59:03.066Z,-4.50
2019-01-25T06:01:33.276Z,-4.40
2019-01-25T06:04:03.432Z,-4.50
2019-01-25T06:06:33.516Z,-4.50
2019-01-25T06:09:05.189Z,-4.50
2019-01-25T06:11:37.915Z,-4.40
2019-01-25T06:14:10.063Z,-4.50
2019-01-25T06:16:42.161Z,-4.40
2019-01-25T06:19:12.309Z,-4.50
2019-01-25T06:21:42.469Z,-4.50
2019-01-25T06:24:12.715Z,-4.50
2019-01-25T06:26:45.915Z,-4.50
2019-01-25T06:29:16.359Z,-4.40
2019-01-25T06:31:46.502Z,-4.40
2019-01-25T06:34:16.655Z,-4.40
2019-01-25T06:36:46.752Z,-4.50
2019-01-25T06:39:16.894Z,-4.50
2019-01-25T06:41:47.400Z,-4.50
2019-01-25T06:44:17.468Z,-4.50
2019-01-25T06:46:47.554Z,-4.50
2019-01-25T06:49:17.719Z,-4.50
2019-01-25T06:51:47.767Z,-4.50
2019-01-25T06:54:17.968Z,-4.50
2019-01-25T06:56:48.383Z,-4.40
2019-01-25T06:59:22.075Z,-4.50
2019-01-25T07:01:59.156Z,-4.50
2019-01-25T07:04:29.529Z,-4.50
2019-01-25T07:07:00.782Z,-4.50
2019-01-25T07:09:30.962Z,-4.60
2019-01-25T07:12:01.320Z,-4.50
2019-01-25T07:14:31.767Z,-4.40
2019-01-25T07:17:01.903Z,-4.50
2019-01-25T07:19:32.074Z,-4.50
2019-01-25T07:22:02.491Z,-4.60
2019-01-25T07:24:32.909Z,-4.60
2019-01-25T07:27:03.351Z,-4.60
2019-01-25T07:29:33.600Z,-4.50
2019-01-25T07:32:03.831Z,-4.50
2019-01-25T07:34:34.934Z,-4.60
2019-01-25T07:37:05.330Z,-4.50
2019-01-25T07:39:35.779Z,-4.60
2019-01-25T07:42:05.917Z,-4.50
2019-01-25T07:44:36.125Z,-4.50
2019-01-25T07:47:06.645Z,-4.50
2019-01-25T07:49:37.773Z,-4.50
2019-01-25T07:52:07.897Z,-4.50
2019-01-25T07:54:38.182Z,-4.50
2019-01-25T07:57:08.844Z,-4.50
2019-01-25T07:59:39.103Z,-4.50
2019-01-25T08:02:10.340Z,-4.50
2019-01-25T08:04:40.747Z,-4.50
2019-01-25T08:07:10.888Z,-4.50
2019-01-25T08:09:41.085Z,-4.50
2019-01-25T08:12:11.268Z,-4.50
2019-01-25T08:14:41.732Z,-4.50
2019-01-25T08:17:12.106Z,-4.40
2019-01-25T08:19:42.264Z,-4.40
2019-01-25T08:22:12.938Z,-4.40
2019-01-25T08:24:44.243Z,-4.40
2019-01-25T08:27:14.807Z,-4.40
2019-01-25T08:29:45.029Z,-4.40
2019-01-25T08:32:15.182Z,-4.40
2019-01-25T08:34:45.425Z,-4.40
2019-01-25T08:37:15.845Z,-4.40
2019-01-25T08:39:46.023Z,-4.40
2019-01-25T08:42:16.257Z,-4.40
2019-01-25T08:44:46.329Z,-4.40
2019-01-25T08:47:16.825Z,-4.40
2019-01-25T08:49:47.051Z,-4.30
2019-01-25T08:52:17.259Z,-4.30
2019-01-25T08:54:47.436Z,-4.30
2019-01-25T08:57:18.812Z,-4.30
2019-01-25T08:59:49.120Z,-4.40
2019-01-25T09:02:19.223Z,-4.20
2019-01-25T09:04:49.406Z,-4.10
2019-01-25T09:07:19.901Z,-4.30
2019-01-25T09:09:50.053Z,-4.20
2019-01-25T09:12:23.472Z,-4.20
2019-01-25T09:14:54.965Z,-4.20
2019-01-25T09:17:25.171Z,-4.10
2019-01-25T09:19:55.330Z,-4.10
2019-01-25T09:22:25.410Z,-4.00
2019-01-25T09:24:55.523Z,-4.10
2019-01-25T09:27:25.907Z,-3.80
2019-01-25T09:29:56.078Z,-3.90
2019-01-25T09:32:26.284Z,-3.70
2019-01-25T09:34:56.448Z,-3.70
2019-01-25T09:37:26.984Z,-3.60
2019-01-25T09:39:59.319Z,-3.50
2019-01-25T09:42:31.175Z,-3.70
2019-01-25T09:45:01.315Z,-3.60
2019-01-25T09:47:32.535Z,-3.30
2019-01-25T09:50:02.703Z,-3.20
2019-01-25T09:52:33.156Z,-3.10
2019-01-25T09:55:03.392Z,-3.00
2019-01-25T09:57:33.497Z,-2.80
2019-01-25T10:00:04.020Z,-3.00
2019-01-25T10:02:34.213Z,-3.10
2019-01-25T10:05:04.606Z,-3.10
2019-01-25T10:07:34.690Z,-3.10
2019-01-25T10:10:05.451Z,-3.00
2019-01-25T10:12:43.064Z,-3.30
2019-01-25T10:15:09.125Z,-3.20
2019-01-25T10:17:39.417Z,-3.30
2019-01-25T10:20:09.912Z,-3.30
2019-01-25T10:22:40.526Z,-3.40
2019-01-25T10:25:11.021Z,-3.30
2019-01-25T10:27:41.498Z,-3.30
2019-01-25T10:30:14.571Z,-3.20
2019-01-25T10:32:44.720Z,-3.10
2019-01-25T10:35:14.886Z,-3.30
2019-01-25T10:37:45.383Z,-3.30
2019-01-25T10:40:16.953Z,-3.20
2019-01-25T10:42:53.041Z,-3.30
2019-01-25T10:45:22.922Z,-3.30
2019-01-25T10:47:53.356Z,-3.30
2019-01-25T10:50:24.726Z,-3.40
2019-01-25T10:52:54.783Z,-3.50
2019-01-25T10:55:24.904Z,-3.60
2019-01-25T10:57:55.566Z,-3.80
2019-01-25T11:00:25.816Z,-3.70
2019-01-25T11:02:58.345Z,-3.70
2019-01-25T11:05:28.223Z,-3.70
2019-01-25T11:07:58.555Z,-3.60
2019-01-25T11:10:28.698Z,-3.60
2019-01-25T11:13:01.119Z,-3.70
2019-01-25T11:15:30.596Z,-3.70
2019-01-25T11:18:00.782Z,-3.70
2019-01-25T11:20:30.951Z,-3.70
2019-01-25T11:23:02.504Z,-3.60
2019-01-25T11:25:35.036Z,-3.50
2019-01-25T11:28:05.675Z,-3.50
2019-01-25T11:30:36.235Z,-3.60
2019-01-25T11:33:06.873Z,-3.60
2019-01-25T11:35:36.916Z,-3.60
2019-01-25T11:38:07.087Z,-3.70
2019-01-25T11:40:39.891Z,-3.70
2019-01-25T11:43:10.048Z,-3.60
2019-01-25T11:45:40.106Z,-3.50
2019-01-25T11:48:13.142Z,-3.40
2019-01-25T11:50:43.596Z,-3.30
2019-01-25T11:53:13.668Z,-3.30
2019-01-25T11:55:43.847Z,-3.30
2019-01-25T11:58:13.975Z,-3.30
2019-01-25T12:00:46.118Z,-3.20
2019-01-25T12:03:16.582Z,-3.30
2019-01-25T12:05:46.743Z,-3.50
2019-01-25T12:08:17.043Z,-3.50
2019-01-25T12:10:47.209Z,-3.50
2019-01-25T12:13:17.622Z,-3.40
2019-01-25T12:15:47.991Z,-3.50
2019-01-25T12:18:18.189Z,-3.40
2019-01-25T12:20:48.302Z,-3.30
2019-01-25T12:23:20.066Z,-3.40
2019-01-25T12:25:50.249Z,-3.40
2019-01-25T12:28:20.428Z,-3.30
2019-01-25T12:30:50.944Z,-3.10
2019-01-25T12:33:21.172Z,-3.00
2019-01-25T12:35:51.382Z,-2.90
2019-01-25T12:38:21.803Z,-3.00
2019-01-25T12:40:51.892Z,-3.10
2019-01-25T12:43:24.145Z,-3.30
2019-01-25T12:45:53.912Z,-3.30
2019-01-25T12:48:25.153Z,-3.30
2019-01-25T12:51:21.744Z,-3.10
2019-01-25T12:53:51.917Z,-3.10
2019-01-25T12:56:22.046Z,-3.20
2019-01-25T12:58:52.157Z,-3.20
2019-01-25T13:01:22.842Z,-3.20
2019-01-25T13:03:53.332Z,-3.20
2019-01-25T13:06:24.986Z,-3.10
2019-01-25T13:08:56.254Z,-3.10
2019-01-25T13:11:26.340Z,-3.00
2019-01-25T13:13:56.497Z,-3.10
2019-01-25T13:16:29.535Z,-3.20
2019-01-25T13:19:01.485Z,-2.90
2019-01-25T13:21:32.025Z,-3.00
2019-01-25T13:24:02.110Z,-2.80
2019-01-25T13:26:32.307Z,-2.70
2019-01-25T13:29:02.493Z,-2.70
2019-01-25T13:31:34.454Z,-2.90
2019-01-25T13:34:05.022Z,-2.80
2019-01-25T13:36:35.277Z,-2.80
2019-01-25T13:39:08.971Z,-2.90
2019-01-25T13:41:40.941Z,-2.90
2019-01-25T13:44:11.167Z,-2.90
2019-01-25T13:46:41.316Z,-2.90
2019-01-25T13:49:11.431Z,-3.00
2019-01-25T13:51:41.649Z,-3.10
2019-01-25T13:54:12.074Z,-3.10
2019-01-25T13:56:42.204Z,-2.90
2019-01-25T13:59:12.423Z,-2.70
2019-01-25T14:01:42.522Z,-2.80
2019-01-25T14:04:13.599Z,-2.90
2019-01-25T14:06:43.814Z,-2.90
2019-01-25T14:09:14.605Z,-2.90
2019-01-25T14:11:44.768Z,-3.00
2019-01-25T14:14:15.177Z,-3.00
2019-01-25T14:16:45.245Z,-3.00
2019-01-25T14:19:15.361Z,-3.00
2019-01-25T14:21:45.430Z,-2.90
2019-01-25T14:24:16.787Z,-3.00
2019-01-25T14:26:47.372Z,-3.00
2019-01-25T14:29:17.477Z,-3.00
2019-01-25T14:31:47.645Z,-3.00
2019-01-25T14:34:18.072Z,-3.00
2019-01-25T14:36:48.459Z,-3.00
2019-01-25T14:39:18.565Z,-3.00
2019-01-25T14:41:48.649Z,-3.00
2019-01-25T14:44:18.820Z,-3.00
2019-01-25T14:46:50.848Z,-3.00
2019-01-25T14:49:21.755Z,-3.00
2019-01-25T14:51:52.286Z,-3.00
2019-01-25T14:54:22.382Z,-3.00
2019-01-25T14:56:52.894Z,-3.00
2019-01-25T14:59:23.259Z,-3.00
2019-01-25T15:01:53.493Z,-3.00
2019-01-25T15:04:23.665Z,-3.00
2019-01-25T15:06:53.783Z,-3.00
2019-01-25T15:09:23.920Z,-3.00
2019-01-25T15:11:54.365Z,-3.10
2019-01-25T15:14:25.811Z,-3.10
2019-01-25T15:16:56.060Z,-3.20
2019-01-25T15:19:26.405Z,-3.20
2019-01-25T15:21:56.508Z,-3.30
2019-01-25T15:24:26.806Z,-3.30
2019-01-25T15:26:57.008Z,-3.20
2019-01-25T15:29:27.665Z,-3.30
2019-01-25T15:31:57.737Z,-3.30
2019-01-25T15:34:27.945Z,-3.30
2019-01-25T15:36:58.016Z,-3.30
2019-01-25T15:39:28.376Z,-3.30
2019-01-25T15:41:58.679Z,-3.30
2019-01-25T15:44:28.791Z,-3.20
2019-01-25T15:46:59.075Z,-3.20
2019-01-25T15:49:29.479Z,-3.20
2019-01-25T15:51:59.679Z,-3.30
2019-01-25T15:54:30.148Z,-3.30
2019-01-25T15:57:00.723Z,-3.30
2019-01-25T15:59:30.902Z,-3.30
2019-01-25T16:02:01.033Z,-3.40
2019-01-25T16:04:35.078Z,-3.30
2019-01-25T16:07:03.099Z,-3.40
2019-01-25T16:09:33.208Z,-3.40
2019-01-25T16:12:03.737Z,-3.50
2019-01-25T16:14:33.914Z,-3.60
2019-01-25T16:17:04.196Z,-3.60
2019-01-25T16:19:34.591Z,-3.50
2019-01-25T16:22:04.747Z,-3.40
2019-01-25T16:24:35.131Z,-3.50
2019-01-25T16:27:05.744Z,-3.40
2019-01-25T16:29:35.813Z,-3.50
2019-01-25T16:32:06.034Z,-3.50
2019-01-25T16:34:36.207Z,-3.40
2019-01-25T16:37:06.647Z,-3.40
2019-01-25T16:39:37.043Z,-3.60
2019-01-25T16:42:07.197Z,-3.60
2019-01-25T16:44:37.449Z,-3.70
2019-01-25T16:47:08.055Z,-3.80
2019-01-25T16:49:38.213Z,-3.80
2019-01-25T16:52:08.451Z,-3.70
2019-01-25T16:54:39.043Z,-3.70
2019-01-25T16:57:09.275Z,-3.60
2019-01-25T16:59:39.428Z,-3.60
2019-01-25T17:02:09.977Z,-3.60
2019-01-25T17:04:40.126Z,-3.60
2019-01-25T17:07:10.320Z,-3.40
2019-01-25T17:09:40.522Z,-3.40
2019-01-25T17:12:10.978Z,-3.40
2019-01-25T17:14:41.084Z,-3.40
2019-01-25T17:17:11.423Z,-3.40
2019-01-25T17:19:41.495Z,-3.20
2019-01-25T17:22:11.893Z,-3.20
2019-01-25T17:24:42.186Z,-3.30
2019-01-25T17:27:15.953Z,-3.30
2019-01-25T17:29:46.343Z,-3.30
2019-01-25T17:32:16.443Z,-3.40
2019-01-25T17:34:46.544Z,-3.30
2019-01-25T17:37:16.999Z,-3.30
2019-01-25T17:39:47.130Z,-3.30
2019-01-25T17:42:17.202Z,-3.30
2019-01-25T17:44:47.393Z,-3.30
2019-01-25T17:47:17.475Z,-3.30
2019-01-25T17:49:48.008Z,-3.30
2019-01-25T17:52:18.135Z,-3.30
2019-01-25T17:54:48.277Z,-3.30
2019-01-25T17:57:18.533Z,-3.30
2019-01-25T17:59:48.603Z,-3.30
2019-01-25T18:02:19.033Z,-3.30
2019-01-25T18:04:49.266Z,-3.20
2019-01-25T18:07:19.508Z,-3.20
2019-01-25T18:09:49.674Z,-3.30
2019-01-25T18:12:20.063Z,-3.30
2019-01-25T18:14:50.261Z,-3.30
2019-01-25T18:17:21.362Z,-3.30
2019-01-25T18:19:51.528Z,-3.30
2019-01-25T18:22:21.651Z,-3.30
2019-01-25T18:24:54.513Z,-3.20
2019-01-25T18:27:25.716Z,-3.20
2019-01-25T18:29:58.782Z,-3.20
2019-01-25T18:32:30.496Z,-3.20
2019-01-25T18:35:00.676Z,-3.20
2019-01-25T18:37:31.261Z,-3.20
2019-01-25T18:40:01.431Z,-3.10
2019-01-25T18:42:31.586Z,-3.10
2019-01-25T18:45:01.727Z,-3.20
2019-01-25T18:47:32.838Z,-3.10
2019-01-25T18:50:03.327Z,-3.10
2019-01-25T18:52:33.594Z,-3.00
2019-01-25T18:55:05.015Z,-3.00
2019-01-25T18:57:35.554Z,-3.10
2019-01-25T19:00:07.349Z,-3.10
2019-01-25T19:02:37.826Z,-3.20
2019-01-25T19:05:10.295Z,-3.00
2019-01-25T19:07:40.716Z,-3.00
2019-01-25T19:10:14.103Z,-3.00
2019-01-25T19:12:44.565Z,-2.90
2019-01-25T19:15:16.762Z,-3.00
2019-01-25T19:17:47.047Z,-3.00
2019-01-25T19:20:17.666Z,-3.10
2019-01-25T19:22:47.926Z,-3.10
2019-01-25T19:25:18.027Z,-3.60
2019-01-25T19:27:48.513Z,-4.10
2019-01-25T19:30:24.330Z,-4.40
2019-01-25T19:32:54.527Z,-4.70
2019-01-25T19:35:24.697Z,-5.00
2019-01-25T19:37:54.777Z,-5.20
2019-01-25T19:40:26.190Z,-5.20
2019-01-25T19:42:56.556Z,-5.10
2019-01-25T19:45:26.824Z,-5.30
2019-01-25T19:47:57.028Z,-5.40
2019-01-25T19:50:28.922Z,-5.50
2019-01-25T19:52:59.101Z,-5.60
2019-01-25T19:55:29.743Z,-5.70
2019-01-25T19:57:59.937Z,-5.80
2019-01-25T20:00:35.618Z,-5.70
2019-01-25T20:03:06.576Z,-5.80
2019-01-25T20:05:36.914Z,-5.80
2019-01-25T20:08:10.301Z,-5.80
2019-01-25T20:10:40.902Z,-5.90
2019-01-25T20:13:11.870Z,-6.00
2019-01-25T20:15:42.025Z,-6.00
2019-01-25T20:18:14.258Z,-6.00
2019-01-25T20:20:44.642Z,-6.00
2019-01-25T20:23:14.800Z,-6.10
2019-01-25T20:25:45.019Z,-6.10
2019-01-25T20:28:15.102Z,-6.00
2019-01-25T20:30:49.557Z,-6.10
2019-01-25T20:33:17.024Z,-6.10
2019-01-25T20:35:48.139Z,-6.00
2019-01-25T20:38:18.314Z,-6.00
2019-01-25T20:40:48.886Z,-6.10
2019-01-25T20:43:19.032Z,-6.00
2019-01-25T20:45:49.127Z,-6.10
2019-01-25T20:48:20.533Z,-6.00
2019-01-25T20:50:50.912Z,-6.00
2019-01-25T20:53:21.081Z,-5.90
2019-01-25T20:55:53.593Z,-6.00
2019-01-25T20:58:24.020Z,-5.90
2019-01-25T21:00:54.237Z,-6.00
2019-01-25T21:03:43.456Z,-6.00
2019-01-25T21:06:14.062Z,-6.00
2019-01-25T21:08:44.237Z,-5.90
2019-01-25T21:11:14.476Z,-5.90
2019-01-25T21:13:44.922Z,-5.90
2019-01-25T21:16:15.126Z,-5.80
2019-01-25T21:18:45.380Z,-5.80
2019-01-25T21:21:15.568Z,-5.70
2019-01-25T21:23:46.032Z,-5.60
2019-01-25T21:26:16.393Z,-5.60
2019-01-25T21:28:48.547Z,-5.50
2019-01-25T21:31:19.103Z,-5.50
2019-01-25T21:33:49.293Z,-5.40
2019-01-25T21:36:19.517Z,-5.30
2019-01-25T21:38:49.664Z,-5.30
2019-01-25T21:41:20.075Z,-5.30
2019-01-25T21:43:50.321Z,-5.30
2019-01-25T21:46:20.477Z,-5.30
2019-01-25T21:48:50.707Z,-5.30
2019-01-25T21:51:21.215Z,-5.30
2019-01-25T21:53:51.426Z,-5.30
2019-01-25T21:56:22.761Z,-5.30
2019-01-25T21:58:53.148Z,-5.30
2019-01-25T22:01:23.355Z,-5.30
2019-01-25T22:03:55.583Z,-5.20
2019-01-25T22:06:27.040Z,-5.20
2019-01-25T22:08:57.213Z,-5.20
2019-01-25T22:11:27.595Z,-5.20
2019-01-25T22:13:57.720Z,-5.20
2019-01-25T22:16:28.267Z,-5.20
2019-01-25T22:18:58.411Z,-5.20
2019-01-25T22:21:28.656Z,-5.10
2019-01-25T22:24:06.236Z,-5.10
2019-01-25T22:26:36.639Z,-5.10
2019-01-25T22:29:06.885Z,-5.10
2019-01-25T22:31:37.444Z,-5.10
2019-01-25T22:34:07.614Z,-5.20
2019-01-25T22:36:37.766Z,-5.20
2019-01-25T22:39:09.037Z,-5.20
2019-01-25T22:41:39.416Z,-5.20
2019-01-25T22:44:09.556Z,-5.30
2019-01-25T22:46:39.662Z,-5.30
2019-01-25T22:49:09.884Z,-5.20
2019-01-25T22:51:40.337Z,-5.10
2019-01-25T22:54:10.637Z,-5.10
2019-01-25T22:56:40.815Z,-5.10
2019-01-25T22:59:11.259Z,-5.10
2019-01-25T23:01:42.239Z,-5.00
2019-01-25T23:04:51.319Z,-5.00
2019-01-25T23:07:27.035Z,-5.00
2019-01-25T23:10:11.770Z,-5.00
2019-01-25T23:12:41.883Z,-5.00
2019-01-25T23:15:14.852Z,-5.00
2019-01-25T23:17:45.067Z,-4.90
2019-01-25T23:20:15.611Z,-4.90
2019-01-25T23:22:45.669Z,-4.90
2019-01-25T23:25:15.899Z,-4.90
2019-01-25T23:27:46.057Z,-4.90
2019-01-25T23:30:17.951Z,-4.80
2019-01-25T23:32:48.073Z,-4.80
2019-01-25T23:35:18.476Z,-4.80
2019-01-25T23:37:48.726Z,-4.80
2019-01-25T23:40:18.967Z,-4.90
2019-01-25T23:42:49.170Z,-4.90
2019-01-25T23:45:19.447Z,-4.90
2019-01-25T23:47:49.737Z,-4.90
2019-01-25T23:50:19.913Z,-4.90
2019-01-25T23:52:51.202Z,-4.90
2019-01-25T23:55:21.635Z,-4.90
2019-01-25T23:57:51.769Z,-4.90
